sensor_id;sensor_type;location;lat;lon;timestamp;pressure;altitude;pressure_sealevel;temperature;humidity
19086;BME280;9675;51.538;6.728;2023-03-03T00:00:48;101999.94;;;4.86;100.00
19086;BME280;9675;51.538;6.728;2023-03-03T00:03:20;102003.09;;;4.83;100.00
19086;BME280;9675;51.538;6.728;2023-03-03T00:05:48;102004.00;;;4.84;100.00
19086;BME280;9675;51.538;6.728;2023-03-03T00:08:16;102015.75;;;4.82;100.00
19086;BME280;9675;51.538;6.728;2023-03-03T00:10:45;102013.94;;;4.81;100.00
19086;BME280;9675;51.538;6.728;2023-03-03T00:13:14;102016.34;;;4.79;100.00
19086;BME280;9675;51.538;6.728;2023-03-03T00:15:42;102021.28;;;4.78;100.00
19086;BME280;9675;51.538;6.728;2023-03-03T00:18:21;102019.53;;;4.77;100.00
19086;BME280;9675;51.538;6.728;2023-03-03T00:20:54;102018.47;;;4.75;100.00
19086;BME280;9675;51.538;6.728;2023-03-03T00:23:35;102020.28;;;4.76;100.00
19086;BME280;9675;51.538;6.728;2023-03-03T00:26:19;102025.09;;;4.72;100.00
19086;BME280;9675;51.538;6.728;2023-03-03T00:28:49;102030.94;;;4.71;100.00
19086;BME280;9675;51.538;6.728;2023-03-03T00:31:19;102025.84;;;4.71;100.00
19086;BME280;9675;51.538;6.728;2023-03-03T00:33:49;102036.03;;;4.71;100.00
19086;BME280;9675;51.538;6.728;2023-03-03T00:36:35;102031.72;;;4.70;100.00
19086;BME280;9675;51.538;6.728;2023-03-03T00:39:21;102039.97;;;4.68;100.00
19086;BME280;9675;51.538;6.728;2023-03-03T00:41:52;102050.03;;;4.66;100.00
19086;BME280;9675;51.538;6.728;2023-03-03T00:44:40;102037.75;;;4.62;100.00
19086;BME280;9675;51.538;6.728;2023-03-03T00:47:25;102039.56;;;4.63;100.00
19086;BME280;9675;51.538;6.728;2023-03-03T00:49:54;102042.84;;;4.62;100.00
19086;BME280;9675;51.538;6.728;2023-03-03T00:52:23;102049.50;;;4.60;100.00
19086;BME280;9675;51.538;6.728;2023-03-03T00:54:53;102051.00;;;4.58;100.00
19086;BME280;9675;51.538;6.728;2023-03-03T00:57:21;102049.94;;;4.56;100.00
19086;BME280;9675;51.538;6.728;2023-03-03T00:59:48;102056.41;;;4.53;100.00
19086;BME280;9675;51.538;6.728;2023-03-03T01:02:15;102049.50;;;4.52;100.00
19086;BME280;9675;51.538;6.728;2023-03-03T01:04:48;102043.50;;;4.51;100.00
19086;BME280;9675;51.538;6.728;2023-03-03T01:07:16;102037.25;;;4.48;100.00
19086;BME280;9675;51.538;6.728;2023-03-03T01:09:43;102039.63;;;4.46;100.00
19086;BME280;9675;51.538;6.728;2023-03-03T01:12:11;102049.84;;;4.46;100.00
19086;BME280;9675;51.538;6.728;2023-03-03T01:14:40;102047.28;;;4.46;100.00
19086;BME280;9675;51.538;6.728;2023-03-03T01:17:10;102037.88;;;4.45;100.00
19086;BME280;9675;51.538;6.728;2023-03-03T01:19:37;102032.78;;;4.45;100.00
19086;BME280;9675;51.538;6.728;2023-03-03T01:22:04;102043.56;;;4.43;100.00
19086;BME280;9675;51.538;6.728;2023-03-03T01:24:31;102051.97;;;4.42;100.00
19086;BME280;9675;51.538;6.728;2023-03-03T01:26:58;102051.06;;;4.41;100.00
19086;BME280;9675;51.538;6.728;2023-03-03T01:29:25;102052.59;;;4.39;100.00
19086;BME280;9675;51.538;6.728;2023-03-03T01:31:53;102049.00;;;4.37;100.00
19086;BME280;9675;51.538;6.728;2023-03-03T01:34:20;102049.00;;;4.37;100.00
19086;BME280;9675;51.538;6.728;2023-03-03T01:36:47;102046.44;;;4.37;100.00
19086;BME280;9675;51.538;6.728;2023-03-03T01:39:14;102039.69;;;4.38;100.00
19086;BME280;9675;51.538;6.728;2023-03-03T01:41:41;102042.66;;;4.42;100.00
19086;BME280;9675;51.538;6.728;2023-03-03T01:44:13;102045.63;;;4.47;100.00
19086;BME280;9675;51.538;6.728;2023-03-03T01:46:53;102052.53;;;4.48;100.00
19086;BME280;9675;51.538;6.728;2023-03-03T01:49:25;102049.56;;;4.43;100.00
19086;BME280;9675;51.538;6.728;2023-03-03T01:51:56;102036.25;;;4.37;100.00
19086;BME280;9675;51.538;6.728;2023-03-03T01:54:29;102035.06;;;4.34;100.00
19086;BME280;9675;51.538;6.728;2023-03-03T01:57:00;102034.78;;;4.31;100.00
19086;BME280;9675;51.538;6.728;2023-03-03T01:59:33;102042.00;;;4.26;100.00
19086;BME280;9675;51.538;6.728;2023-03-03T02:02:03;102036.00;;;4.25;100.00
19086;BME280;9675;51.538;6.728;2023-03-03T02:04:32;102034.97;;;4.23;100.00
19086;BME280;9675;51.538;6.728;2023-03-03T02:07:04;102033.31;;;4.24;100.00
19086;BME280;9675;51.538;6.728;2023-03-03T02:09:45;102035.88;;;4.24;100.00
19086;BME280;9675;51.538;6.728;2023-03-03T02:12:18;102035.88;;;4.24;100.00
19086;BME280;9675;51.538;6.728;2023-03-03T02:14:46;102034.06;;;4.23;100.00
19086;BME280;9675;51.538;6.728;2023-03-03T02:17:15;102039.75;;;4.20;100.00
19086;BME280;9675;51.538;6.728;2023-03-03T02:19:50;102042.47;;;4.22;100.00
19086;BME280;9675;51.538;6.728;2023-03-03T02:22:30;102038.88;;;4.20;100.00
19086;BME280;9675;51.538;6.728;2023-03-03T02:25:01;102036.03;;;4.17;100.00
19086;BME280;9675;51.538;6.728;2023-03-03T02:27:31;102029.88;;;4.15;100.00
19086;BME280;9675;51.538;6.728;2023-03-03T02:30:14;102030.50;;;4.12;100.00
19086;BME280;9675;51.538;6.728;2023-03-03T02:32:41;102033.66;;;4.10;100.00
19086;BME280;9675;51.538;6.728;2023-03-03T02:35:37;102046.56;;;4.11;100.00
19086;BME280;9675;51.538;6.728;2023-03-03T02:38:16;102038.00;;;4.11;100.00
19086;BME280;9675;51.538;6.728;2023-03-03T02:40:57;102034.44;;;4.09;100.00
19086;BME280;9675;51.538;6.728;2023-03-03T02:43:36;102044.91;;;4.12;100.00
19086;BME280;9675;51.538;6.728;2023-03-03T02:46:05;102044.44;;;4.16;100.00
19086;BME280;9675;51.538;6.728;2023-03-03T02:48:33;102041.19;;;4.08;100.00
19086;BME280;9675;51.538;6.728;2023-03-03T02:51:00;102049.72;;;4.09;100.00
19086;BME280;9675;51.538;6.728;2023-03-03T02:53:27;102056.31;;;4.07;100.00
19086;BME280;9675;51.538;6.728;2023-03-03T02:55:54;102046.88;;;4.06;100.00
19086;BME280;9675;51.538;6.728;2023-03-03T02:58:21;102044.31;;;4.06;100.00
19086;BME280;9675;51.538;6.728;2023-03-03T03:00:49;102037.16;;;4.02;100.00
19086;BME280;9675;51.538;6.728;2023-03-03T03:03:16;102037.75;;;3.99;100.00
19086;BME280;9675;51.538;6.728;2023-03-03T03:05:43;102044.53;;;3.99;100.00
19086;BME280;9675;51.538;6.728;2023-03-03T03:08:10;102047.94;;;3.99;100.00
19086;BME280;9675;51.538;6.728;2023-03-03T03:10:37;102046.91;;;3.97;100.00
19086;BME280;9675;51.538;6.728;2023-03-03T03:13:04;102047.94;;;3.99;100.00
19086;BME280;9675;51.538;6.728;2023-03-03T03:15:31;102053.19;;;4.01;100.00
19086;BME280;9675;51.538;6.728;2023-03-03T03:17:59;102050.84;;;3.94;100.00
19086;BME280;9675;51.538;6.728;2023-03-03T03:20:26;102051.56;;;3.93;100.00
19086;BME280;9675;51.538;6.728;2023-03-03T03:22:53;102063.25;;;3.91;100.00
19086;BME280;9675;51.538;6.728;2023-03-03T03:25:20;102069.88;;;3.89;100.00
19086;BME280;9675;51.538;6.728;2023-03-03T03:27:47;102056.09;;;3.87;100.00
19086;BME280;9675;51.538;6.728;2023-03-03T03:30:15;102054.28;;;3.85;100.00
19086;BME280;9675;51.538;6.728;2023-03-03T03:32:45;102062.66;;;3.84;100.00
19086;BME280;9675;51.538;6.728;2023-03-03T03:35:14;102062.66;;;3.84;100.00
19086;BME280;9675;51.538;6.728;2023-03-03T03:37:42;102060.88;;;3.83;100.00
19086;BME280;9675;51.538;6.728;2023-03-03T03:40:10;102060.88;;;3.83;100.00
19086;BME280;9675;51.538;6.728;2023-03-03T03:42:37;102064.19;;;3.82;100.00
19086;BME280;9675;51.538;6.728;2023-03-03T03:45:07;102061.66;;;3.82;100.00
19086;BME280;9675;51.538;6.728;2023-03-03T03:47:34;102061.78;;;3.84;100.00
19086;BME280;9675;51.538;6.728;2023-03-03T03:50:01;102073.47;;;3.82;100.00
19086;BME280;9675;51.538;6.728;2023-03-03T03:52:29;102082.78;;;3.81;100.00
19086;BME280;9675;51.538;6.728;2023-03-03T03:54:56;102077.38;;;3.78;100.00
19086;BME280;9675;51.538;6.728;2023-03-03T03:57:23;102074.38;;;3.74;100.00
19086;BME280;9675;51.538;6.728;2023-03-03T03:59:50;102073.47;;;3.73;100.00
19086;BME280;9675;51.538;6.728;2023-03-03T04:02:18;102066.63;;;3.72;100.00
19086;BME280;9675;51.538;6.728;2023-03-03T04:04:45;102088.75;;;3.73;100.00
19086;BME280;9675;51.538;6.728;2023-03-03T04:07:12;102080.38;;;3.74;100.00
19086;BME280;9675;51.538;6.728;2023-03-03T04:09:41;102079.03;;;3.69;100.00
19086;BME280;9675;51.538;6.728;2023-03-03T04:12:08;102083.22;;;3.69;100.00
19086;BME280;9675;51.538;6.728;2023-03-03T04:14:35;102072.13;;;3.68;100.00
19086;BME280;9675;51.538;6.728;2023-03-03T04:17:02;102074.25;;;3.72;100.00
19086;BME280;9675;51.538;6.728;2023-03-03T04:19:29;102071.69;;;3.81;100.00
19086;BME280;9675;51.538;6.728;2023-03-03T04:21:56;102073.59;;;3.83;100.00
19086;BME280;9675;51.538;6.728;2023-03-03T04:24:23;102068.38;;;3.73;100.00
19086;BME280;9675;51.538;6.728;2023-03-03T04:26:52;102069.28;;;3.82;100.00
19086;BME280;9675;51.538;6.728;2023-03-03T04:29:19;102071.84;;;3.82;100.00
19086;BME280;9675;51.538;6.728;2023-03-03T04:31:45;102068.38;;;3.82;100.00
19086;BME280;9675;51.538;6.728;2023-03-03T04:34:12;102075.13;;;3.81;100.00
19086;BME280;9675;51.538;6.728;2023-03-03T04:36:39;102076.78;;;3.81;100.00
19086;BME280;9675;51.538;6.728;2023-03-03T04:39:06;102067.50;;;3.81;100.00
19086;BME280;9675;51.538;6.728;2023-03-03T04:41:33;102070.03;;;3.81;100.00
19086;BME280;9675;51.538;6.728;2023-03-03T04:44:02;102076.63;;;3.79;100.00
19086;BME280;9675;51.538;6.728;2023-03-03T04:46:29;102080.81;;;3.79;100.00
19086;BME280;9675;51.538;6.728;2023-03-03T04:48:56;102079.78;;;3.77;100.00
19086;BME280;9675;51.538;6.728;2023-03-03T04:51:23;102082.19;;;3.75;100.00
19086;BME280;9675;51.538;6.728;2023-03-03T04:53:50;102081.13;;;3.73;100.00
19086;BME280;9675;51.538;6.728;2023-03-03T04:56:17;102077.69;;;3.73;100.00
19086;BME280;9675;51.538;6.728;2023-03-03T04:58:44;102086.53;;;3.76;100.00
19086;BME280;9675;51.538;6.728;2023-03-03T05:01:13;102075.00;;;3.71;100.00
19086;BME280;9675;51.538;6.728;2023-03-03T05:03:40;102079.19;;;3.71;100.00
19086;BME280;9675;51.538;6.728;2023-03-03T05:06:07;102078.00;;;3.67;100.00
19086;BME280;9675;51.538;6.728;2023-03-03T05:08:34;102077.38;;;3.70;100.00
19086;BME280;9675;51.538;6.728;2023-03-03T05:11:03;102078.00;;;3.67;100.00
19086;BME280;9675;51.538;6.728;2023-03-03T05:13:30;102086.25;;;3.65;100.00
19086;BME280;9675;51.538;6.728;2023-03-03T05:15:57;102082.03;;;3.65;100.00
19086;BME280;9675;51.538;6.728;2023-03-03T05:18:26;102087.88;;;3.64;100.00
19086;BME280;9675;51.538;6.728;2023-03-03T05:20:54;102086.97;;;3.64;100.00
19086;BME280;9675;51.538;6.728;2023-03-03T05:23:21;102095.53;;;3.64;100.00
19086;BME280;9675;51.538;6.728;2023-03-03T05:25:49;102087.88;;;3.64;100.00
19086;BME280;9675;51.538;6.728;2023-03-03T05:28:16;102082.19;;;3.67;100.00
19086;BME280;9675;51.538;6.728;2023-03-03T05:30:44;102088.19;;;3.67;100.00
19086;BME280;9675;51.538;6.728;2023-03-03T05:33:13;102090.59;;;3.66;100.00
19086;BME280;9675;51.538;6.728;2023-03-03T05:35:42;102088.78;;;3.65;100.00
19086;BME280;9675;51.538;6.728;2023-03-03T05:38:10;102086.97;;;3.64;100.00
19086;BME280;9675;51.538;6.728;2023-03-03T05:40:37;102086.84;;;3.62;100.00
19086;BME280;9675;51.538;6.728;2023-03-03T05:43:04;102092.69;;;3.61;100.00
19086;BME280;9675;51.538;6.728;2023-03-03T05:45:31;102090.28;;;3.63;100.00
19086;BME280;9675;51.538;6.728;2023-03-03T05:48:00;102086.84;;;3.62;100.00
19086;BME280;9675;51.538;6.728;2023-03-03T05:50:28;102095.97;;;3.60;100.00
19086;BME280;9675;51.538;6.728;2023-03-03T05:52:56;102093.91;;;3.56;100.00
19086;BME280;9675;51.538;6.728;2023-03-03T05:55:25;102091.03;;;3.53;100.00
19086;BME280;9675;51.538;6.728;2023-03-03T05:57:52;102100.78;;;3.57;100.00
19086;BME280;9675;51.538;6.728;2023-03-03T06:00:20;102102.28;;;3.55;100.00
19086;BME280;9675;51.538;6.728;2023-03-03T06:02:47;102097.78;;;3.53;100.00
19086;BME280;9675;51.538;6.728;2023-03-03T06:05:14;102102.84;;;3.53;100.00
19086;BME280;9675;51.538;6.728;2023-03-03T06:07:41;102098.38;;;3.50;100.00
19086;BME280;9675;51.538;6.728;2023-03-03T06:10:11;102097.78;;;3.53;100.00
19086;BME280;9675;51.538;6.728;2023-03-03T06:12:38;102099.44;;;3.52;100.00
19086;BME280;9675;51.538;6.728;2023-03-03T06:15:08;102111.84;;;3.49;100.00
19086;BME280;9675;51.538;6.728;2023-03-03T06:17:35;102109.31;;;3.49;100.00
19086;BME280;9675;51.538;6.728;2023-03-03T06:20:03;102108.41;;;3.49;100.00
19086;BME280;9675;51.538;6.728;2023-03-03T06:22:30;102114.25;;;3.48;100.00
19086;BME280;9675;51.538;6.728;2023-03-03T06:24:57;102117.69;;;3.48;100.00
19086;BME280;9675;51.538;6.728;2023-03-03T06:27:26;102130.41;;;3.48;100.00
19086;BME280;9675;51.538;6.728;2023-03-03T06:29:53;102119.34;;;3.48;100.00
19086;BME280;9675;51.538;6.728;2023-03-03T06:32:20;102130.75;;;3.51;100.00
19086;BME280;9675;51.538;6.728;2023-03-03T06:34:47;102138.38;;;3.51;100.00
19086;BME280;9675;51.538;6.728;2023-03-03T06:37:14;102137.63;;;3.52;100.00
19086;BME280;9675;51.538;6.728;2023-03-03T06:39:41;102134.03;;;3.50;100.00
19086;BME280;9675;51.538;6.728;2023-03-03T06:42:08;102140.94;;;3.51;100.00
19086;BME280;9675;51.538;6.728;2023-03-03T06:44:37;102144.22;;;3.50;100.00
19086;BME280;9675;51.538;6.728;2023-03-03T06:47:04;102142.41;;;3.49;100.00
19086;BME280;9675;51.538;6.728;2023-03-03T06:49:31;102149.31;;;3.50;100.00
19086;BME280;9675;51.538;6.728;2023-03-03T06:52:09;102153.66;;;3.51;100.00
19086;BME280;9675;51.538;6.728;2023-03-03T06:54:37;102147.66;;;3.51;100.00
19086;BME280;9675;51.538;6.728;2023-03-03T06:57:16;102148.25;;;3.48;100.00
19086;BME280;9675;51.538;6.728;2023-03-03T06:59:48;102157.69;;;3.49;100.00
19086;BME280;9675;51.538;6.728;2023-03-03T07:02:18;102157.69;;;3.49;100.00
19086;BME280;9675;51.538;6.728;2023-03-03T07:04:47;102157.69;;;3.49;100.00
19086;BME280;9675;51.538;6.728;2023-03-03T07:07:18;102158.56;;;3.32;100.00
19086;BME280;9675;51.538;6.728;2023-03-03T07:09:48;102168.47;;;3.29;100.00
19086;BME280;9675;51.538;6.728;2023-03-03T07:12:19;102165.75;;;3.28;100.00
19086;BME280;9675;51.538;6.728;2023-03-03T07:14:51;102162.19;;;3.26;100.00
19086;BME280;9675;51.538;6.728;2023-03-03T07:17:24;102172.03;;;3.23;100.00
19086;BME280;9675;51.538;6.728;2023-03-03T07:19:52;102170.38;;;3.23;100.00
19086;BME280;9675;51.538;6.728;2023-03-03T07:22:23;102173.84;;;3.24;100.00
19086;BME280;9675;51.538;6.728;2023-03-03T07:24:53;102168.16;;;3.26;100.00
19086;BME280;9675;51.538;6.728;2023-03-03T07:27:24;102174.13;;;3.27;100.00
19086;BME280;9675;51.538;6.728;2023-03-03T07:29:58;102180.91;;;3.26;100.00
19086;BME280;9675;51.538;6.728;2023-03-03T07:32:39;102175.63;;;3.25;100.00
19086;BME280;9675;51.538;6.728;2023-03-03T07:35:28;102174.00;;;3.25;100.00
19086;BME280;9675;51.538;6.728;2023-03-03T07:37:58;102182.38;;;3.24;100.00
19086;BME280;9675;51.538;6.728;2023-03-03T07:40:35;102185.81;;;3.25;100.00
19086;BME280;9675;51.538;6.728;2023-03-03T07:43:28;102184.00;;;3.24;100.00
19086;BME280;9675;51.538;6.728;2023-03-03T07:48:45;102194.19;;;3.24;100.00
19086;BME280;9675;51.538;6.728;2023-03-03T07:51:18;102198.53;;;3.25;100.00
19086;BME280;9675;51.538;6.728;2023-03-03T07:53:48;102202.00;;;3.25;100.00
19086;BME280;9675;51.538;6.728;2023-03-03T07:56:33;102207.97;;;3.26;100.00
19086;BME280;9675;51.538;6.728;2023-03-03T07:59:08;102206.19;;;3.25;100.00
19086;BME280;9675;51.538;6.728;2023-03-03T08:01:46;102215.47;;;3.24;100.00
19086;BME280;9675;51.538;6.728;2023-03-03T08:04:22;102212.19;;;3.34;100.00
19086;BME280;9675;51.538;6.728;2023-03-03T08:06:53;102215.19;;;3.38;100.00
19086;BME280;9675;51.538;6.728;2023-03-03T08:09:36;102217.88;;;3.40;100.00
19086;BME280;9675;51.538;6.728;2023-03-03T08:12:33;102217.88;;;3.40;100.00
19086;BME280;9675;51.538;6.728;2023-03-03T08:15:18;102228.66;;;3.37;100.00
19086;BME280;9675;51.538;6.728;2023-03-03T08:17:48;102232.44;;;3.41;100.00
19086;BME280;9675;51.538;6.728;2023-03-03T08:20:45;102221.91;;;3.29;100.00
19086;BME280;9675;51.538;6.728;2023-03-03T08:23:15;102223.56;;;3.29;100.00
19086;BME280;9675;51.538;6.728;2023-03-03T08:25:42;102228.63;;;3.29;100.00
19086;BME280;9675;51.538;6.728;2023-03-03T08:28:10;102225.94;;;3.27;100.00
19086;BME280;9675;51.538;6.728;2023-03-03T08:30:39;102224.28;;;3.28;100.00
19086;BME280;9675;51.538;6.728;2023-03-03T08:33:08;102226.72;;;3.35;100.00
19086;BME280;9675;51.538;6.728;2023-03-03T08:35:35;102235.88;;;3.41;100.00
19086;BME280;9675;51.538;6.728;2023-03-03T08:38:03;102236.56;;;3.32;100.00
19086;BME280;9675;51.538;6.728;2023-03-03T08:40:31;102238.38;;;3.33;100.00
19086;BME280;9675;51.538;6.728;2023-03-03T08:42:58;102234.94;;;3.32;100.00
19086;BME280;9675;51.538;6.728;2023-03-03T08:45:26;102232.44;;;3.41;100.00
19086;BME280;9675;51.538;6.728;2023-03-03T08:47:54;102236.72;;;3.33;100.00
19086;BME280;9675;51.538;6.728;2023-03-03T08:50:22;102245.09;;;3.32;100.00
19086;BME280;9675;51.538;6.728;2023-03-03T08:52:50;102238.38;;;3.33;100.00
19086;BME280;9675;51.538;6.728;2023-03-03T08:55:17;102241.09;;;3.34;100.00
19086;BME280;9675;51.538;6.728;2023-03-03T08:57:44;102237.63;;;3.34;100.00
19086;BME280;9675;51.538;6.728;2023-03-03T09:00:17;102247.38;;;3.38;100.00
19086;BME280;9675;51.538;6.728;2023-03-03T09:02:45;102247.97;;;3.35;100.00
19086;BME280;9675;51.538;6.728;2023-03-03T09:05:12;102256.53;;;3.36;100.00
19086;BME280;9675;51.538;6.728;2023-03-03T09:07:43;102251.56;;;3.37;100.00
19086;BME280;9675;51.538;6.728;2023-03-03T09:10:14;102259.81;;;3.35;100.00
19086;BME280;9675;51.538;6.728;2023-03-03T09:12:43;102271.03;;;3.37;100.00
19086;BME280;9675;51.538;6.728;2023-03-03T09:15:20;102271.03;;;3.37;100.00
19086;BME280;9675;51.538;6.728;2023-03-03T09:17:48;102274.81;;;3.40;100.00
19086;BME280;9675;51.538;6.728;2023-03-03T09:20:33;102271.50;;;3.41;100.00
19086;BME280;9675;51.538;6.728;2023-03-03T09:23:32;102272.72;;;3.45;100.00
19086;BME280;9675;51.538;6.728;2023-03-03T09:26:26;102282.72;;;3.43;100.00
19086;BME280;9675;51.538;6.728;2023-03-03T09:28:58;102279.59;;;3.46;100.00
19086;BME280;9675;51.538;6.728;2023-03-03T09:31:37;102280.03;;;3.42;100.00
19086;BME280;9675;51.538;6.728;2023-03-03T09:34:19;102283.19;;;3.39;100.00
19086;BME280;9675;51.538;6.728;2023-03-03T09:36:47;102273.28;;;3.42;100.00
19086;BME280;9675;51.538;6.728;2023-03-03T09:39:20;102276.75;;;3.43;100.00
19086;BME280;9675;51.538;6.728;2023-03-03T09:42:15;102273.78;;;3.47;100.00
19086;BME280;9675;51.538;6.728;2023-03-03T09:45:33;102279.28;;;3.43;100.00
19086;BME280;9675;51.538;6.728;2023-03-03T09:48:41;102289.47;;;3.43;100.00
19086;BME280;9675;51.538;6.728;2023-03-03T09:51:44;102289.47;;;3.43;100.00
19086;BME280;9675;51.538;6.728;2023-03-03T09:54:39;102286.19;;;3.44;100.00
19086;BME280;9675;51.538;6.728;2023-03-03T09:57:14;102271.66;;;3.43;100.00
19086;BME280;9675;51.538;6.728;2023-03-03T10:00:03;102291.44;;;3.46;100.00
19086;BME280;9675;51.538;6.728;2023-03-03T10:02:56;102289.06;;;3.47;100.00
19086;BME280;9675;51.538;6.728;2023-03-03T10:05:40;102285.00;;;3.49;100.00
19086;BME280;9675;51.538;6.728;2023-03-03T10:08:40;102286.81;;;3.50;100.00
19086;BME280;9675;51.538;6.728;2023-03-03T10:11:19;102286.19;;;3.53;100.00
19086;BME280;9675;51.538;6.728;2023-03-03T10:14:12;102288.91;;;3.54;100.00
19086;BME280;9675;51.538;6.728;2023-03-03T10:17:13;102293.25;;;3.55;100.00
19086;BME280;9675;51.538;6.728;2023-03-03T10:19:51;102298.50;;;3.57;100.00
19086;BME280;9675;51.538;6.728;2023-03-03T10:22:34;102300.28;;;3.58;100.00
19086;BME280;9675;51.538;6.728;2023-03-03T10:25:22;102297.31;;;3.62;100.00
19086;BME280;9675;51.538;6.728;2023-03-03T10:28:12;102300.63;;;3.61;100.00
19086;BME280;9675;51.538;6.728;2023-03-03T10:30:52;102301.81;;;3.64;100.00
19086;BME280;9675;51.538;6.728;2023-03-03T10:33:38;102297.63;;;3.65;100.00
19086;BME280;9675;51.538;6.728;2023-03-03T10:36:28;102306.16;;;3.65;100.00
19086;BME280;9675;51.538;6.728;2023-03-03T10:39:13;102304.69;;;3.67;100.00
19086;BME280;9675;51.538;6.728;2023-03-03T10:42:04;102303.91;;;3.68;100.00
19086;BME280;9675;51.538;6.728;2023-03-03T10:44:53;102311.13;;;3.72;100.00
19086;BME280;9675;51.538;6.728;2023-03-03T10:47:44;102306.78;;;3.71;100.00
19086;BME280;9675;51.538;6.728;2023-03-03T10:50:25;102304.41;;;3.73;100.00
19086;BME280;9675;51.538;6.728;2023-03-03T10:53:16;102304.53;;;3.74;100.00
19086;BME280;9675;51.538;6.728;2023-03-03T10:56:00;102305.13;;;3.80;100.00
19086;BME280;9675;51.538;6.728;2023-03-03T10:58:52;102300.94;;;3.90;100.00
19086;BME280;9675;51.538;6.728;2023-03-03T11:01:39;102297.97;;;3.94;100.00
19086;BME280;9675;51.538;6.728;2023-03-03T11:04:44;102303.81;;;3.93;100.00
19086;BME280;9675;51.538;6.728;2023-03-03T11:07:21;102300.81;;;3.97;100.00
19086;BME280;9675;51.538;6.728;2023-03-03T11:10:04;102300.38;;;4.01;100.00
19086;BME280;9675;51.538;6.728;2023-03-03T11:12:47;102294.69;;;4.03;100.00
19086;BME280;9675;51.538;6.728;2023-03-03T11:15:54;102300.06;;;4.06;100.00
19086;BME280;9675;51.538;6.728;2023-03-03T11:18:39;102307.88;;;4.08;100.00
19086;BME280;9675;51.538;6.728;2023-03-03T11:21:19;102297.06;;;4.10;100.00
19086;BME280;9675;51.538;6.728;2023-03-03T11:24:25;102284.78;;;4.15;100.00
19086;BME280;9675;51.538;6.728;2023-03-03T11:27:16;102285.09;;;4.18;100.00
19086;BME280;9675;51.538;6.728;2023-03-03T11:30:05;102282.09;;;4.22;100.00
19086;BME280;9675;51.538;6.728;2023-03-03T11:32:46;102287.47;;;4.25;100.00
19086;BME280;9675;51.538;6.728;2023-03-03T11:35:24;102279.06;;;4.26;100.00
19086;BME280;9675;51.538;6.728;2023-03-03T11:38:05;102276.06;;;4.30;100.00
19086;BME280;9675;51.538;6.728;2023-03-03T11:40:46;102270.66;;;4.36;100.00
19086;BME280;9675;51.538;6.728;2023-03-03T11:43:21;102275.19;;;4.38;100.00
19086;BME280;9675;51.538;6.728;2023-03-03T11:45:55;102278.16;;;4.43;100.00
19086;BME280;9675;51.538;6.728;2023-03-03T11:48:35;102275.03;;;4.45;100.00
19086;BME280;9675;51.538;6.728;2023-03-03T11:51:10;102267.66;;;4.48;100.00
19086;BME280;9675;51.538;6.728;2023-03-03T11:53:53;102271.56;;;4.53;100.00
19086;BME280;9675;51.538;6.728;2023-03-03T11:56:29;102265.84;;;4.56;100.00
19086;BME280;9675;51.538;6.728;2023-03-03T11:59:18;102261.94;;;4.59;100.00
19086;BME280;9675;51.538;6.728;2023-03-03T12:01:52;102264.03;;;4.63;100.00
19086;BME280;9675;51.538;6.728;2023-03-03T12:04:26;102262.53;;;4.65;100.00
19086;BME280;9675;51.538;6.728;2023-03-03T12:07:15;102256.50;;;4.74;100.00
19086;BME280;9675;51.538;6.728;2023-03-03T12:10:06;102255.28;;;4.79;100.00
19086;BME280;9675;51.538;6.728;2023-03-03T12:12:42;102254.97;;;4.84;100.00
19086;BME280;9675;51.538;6.728;2023-03-03T12:15:27;102252.25;;;4.91;100.00
19086;BME280;9675;51.538;6.728;2023-03-03T12:18:41;102251.16;;;4.98;100.00
19086;BME280;9675;51.538;6.728;2023-03-03T12:21:29;102247.53;;;5.04;100.00
19086;BME280;9675;51.538;6.728;2023-03-03T12:24:23;102253.63;;;5.15;100.00
19086;BME280;9675;51.538;6.728;2023-03-03T12:27:12;102244.28;;;5.24;100.00
19086;BME280;9675;51.538;6.728;2023-03-03T12:29:51;102246.66;;;5.31;100.00
19086;BME280;9675;51.538;6.728;2023-03-03T12:32:36;102238.19;;;5.41;100.00
19086;BME280;9675;51.538;6.728;2023-03-03T12:35:14;102236.59;;;5.51;100.00
19086;BME280;9675;51.538;6.728;2023-03-03T12:37:53;102235.19;;;5.64;100.00
19086;BME280;9675;51.538;6.728;2023-03-03T12:40:30;102230.41;;;5.77;100.00
19086;BME280;9675;51.538;6.728;2023-03-03T12:43:15;102229.00;;;5.89;100.00
19086;BME280;9675;51.538;6.728;2023-03-03T12:45:56;102229.34;;;6.02;100.00
19086;BME280;9675;51.538;6.728;2023-03-03T12:48:37;102225.34;;;6.14;99.30
19086;BME280;9675;51.538;6.728;2023-03-03T12:51:19;102218.97;;;6.19;99.32
19086;BME280;9675;51.538;6.728;2023-03-03T12:54:17;102226.44;;;6.26;100.00
19086;BME280;9675;51.538;6.728;2023-03-03T12:56:51;102213.28;;;6.32;100.00
19086;BME280;9675;51.538;6.728;2023-03-03T12:59:30;102220.56;;;6.37;100.00
19086;BME280;9675;51.538;6.728;2023-03-03T13:02:32;102223.97;;;6.47;99.38
19086;BME280;9675;51.538;6.728;2023-03-03T13:05:18;102218.88;;;6.57;99.37
19086;BME280;9675;51.538;6.728;2023-03-03T13:07:57;102223.00;;;6.65;100.00
19086;BME280;9675;51.538;6.728;2023-03-03T13:10:35;102226.72;;;6.68;98.72
19086;BME280;9675;51.538;6.728;2023-03-03T13:13:15;102222.91;;;6.73;98.65
19086;BME280;9675;51.538;6.728;2023-03-03T13:15:56;102218.94;;;6.77;96.37
19086;BME280;9675;51.538;6.728;2023-03-03T13:18:43;102214.84;;;6.79;95.69
19086;BME280;9675;51.538;6.728;2023-03-03T13:21:20;102216.13;;;6.84;93.96
19086;BME280;9675;51.538;6.728;2023-03-03T13:23:54;102217.72;;;6.92;93.81
19086;BME280;9675;51.538;6.728;2023-03-03T13:26:34;102207.25;;;6.99;91.90
19086;BME280;9675;51.538;6.728;2023-03-03T13:29:14;102197.78;;;7.08;91.05
19086;BME280;9675;51.538;6.728;2023-03-03T13:31:49;102200.06;;;7.15;88.82
19086;BME280;9675;51.538;6.728;2023-03-03T13:34:33;102201.75;;;7.25;87.92
19086;BME280;9675;51.538;6.728;2023-03-03T13:37:10;102196.75;;;7.37;87.30
19086;BME280;9675;51.538;6.728;2023-03-03T13:39:53;102193.94;;;7.44;86.17
19086;BME280;9675;51.538;6.728;2023-03-03T13:42:28;102197.03;;;7.50;84.36